sensor_id;sensor_type;location;lat;lon;timestamp;P1;durP1;ratioP1;P2;durP2;ratioP2
16866;SDS011;8550;52.596;13.320;2024-02-26T00:03:18;3.20;;;1.87;;
16866;SDS011;8550;52.596;13.320;2024-02-26T00:08:19;7.32;;;3.55;;
16866;SDS011;8550;52.596;13.320;2024-02-26T00:13:23;13.68;;;3.55;;
16866;SDS011;8550;52.596;13.320;2024-02-26T00:18:25;5.13;;;2.73;;
16866;SDS011;8550;52.596;13.320;2024-02-26T00:23:27;9.87;;;4.30;;
16866;SDS011;8550;52.596;13.320;2024-02-26T00:28:30;26.42;;;3.70;;
16866;SDS011;8550;52.596;13.320;2024-02-26T00:33:32;10.32;;;4.35;;
16866;SDS011;8550;52.596;13.320;2024-02-26T00:38:35;7.00;;;4.50;;
16866;SDS011;8550;52.596;13.320;2024-02-26T00:43:38;10.15;;;4.78;;
16866;SDS011;8550;52.596;13.320;2024-02-26T00:48:42;11.05;;;5.97;;
16866;SDS011;8550;52.596;13.320;2024-02-26T00:53:44;6.40;;;3.37;;
16866;SDS011;8550;52.596;13.320;2024-02-26T00:58:47;8.77;;;4.22;;
16866;SDS011;8550;52.596;13.320;2024-02-26T01:03:49;6.63;;;3.15;;
16866;SDS011;8550;52.596;13.320;2024-02-26T01:08:51;9.03;;;3.50;;
16866;SDS011;8550;52.596;13.320;2024-02-26T01:13:54;4.07;;;2.20;;
16866;SDS011;8550;52.596;13.320;2024-02-26T01:18:57;5.40;;;3.13;;
16866;SDS011;8550;52.596;13.320;2024-02-26T01:23:59;12.55;;;4.15;;
16866;SDS011;8550;52.596;13.320;2024-02-26T01:29:02;4.87;;;2.60;;
16866;SDS011;8550;52.596;13.320;2024-02-26T01:34:04;6.50;;;3.60;;
16866;SDS011;8550;52.596;13.320;2024-02-26T01:39:06;5.28;;;2.75;;
16866;SDS011;8550;52.596;13.320;2024-02-26T01:44:09;7.67;;;3.47;;
16866;SDS011;8550;52.596;13.320;2024-02-26T01:49:13;6.43;;;3.85;;
16866;SDS011;8550;52.596;13.320;2024-02-26T01:54:17;5.63;;;3.10;;
16866;SDS011;8550;52.596;13.320;2024-02-26T01:59:20;5.60;;;2.60;;
16866;SDS011;8550;52.596;13.320;2024-02-26T02:04:23;6.70;;;3.22;;
16866;SDS011;8550;52.596;13.320;2024-02-26T02:09:25;8.52;;;3.97;;
16866;SDS011;8550;52.596;13.320;2024-02-26T02:14:30;5.90;;;2.87;;
16866;SDS011;8550;52.596;13.320;2024-02-26T02:19:32;5.27;;;2.87;;
16866;SDS011;8550;52.596;13.320;2024-02-26T02:24:35;5.13;;;2.88;;
16866;SDS011;8550;52.596;13.320;2024-02-26T02:29:37;7.78;;;3.30;;
16866;SDS011;8550;52.596;13.320;2024-02-26T02:34:39;6.80;;;2.70;;
16866;SDS011;8550;52.596;13.320;2024-02-26T02:39:43;5.43;;;2.72;;
16866;SDS011;8550;52.596;13.320;2024-02-26T02:44:45;5.32;;;2.08;;
16866;SDS011;8550;52.596;13.320;2024-02-26T02:49:47;4.47;;;2.43;;
16866;SDS011;8550;52.596;13.320;2024-02-26T02:54:50;5.63;;;1.88;;
16866;SDS011;8550;52.596;13.320;2024-02-26T02:59:52;4.22;;;2.72;;
16866;SDS011;8550;52.596;13.320;2024-02-26T03:04:54;3.43;;;2.30;;
16866;SDS011;8550;52.596;13.320;2024-02-26T03:09:58;5.05;;;2.13;;
16866;SDS011;8550;52.596;13.320;2024-02-26T03:15:00;4.60;;;1.48;;
16866;SDS011;8550;52.596;13.320;2024-02-26T03:20:03;4.17;;;2.07;;
16866;SDS011;8550;52.596;13.320;2024-02-26T03:25:10;3.53;;;1.30;;
16866;SDS011;8550;52.596;13.320;2024-02-26T03:30:12;5.90;;;2.28;;
16866;SDS011;8550;52.596;13.320;2024-02-26T03:35:15;8.27;;;2.20;;
16866;SDS011;8550;52.596;13.320;2024-02-26T03:40:18;4.30;;;1.57;;
16866;SDS011;8550;52.596;13.320;2024-02-26T03:45:20;2.83;;;1.80;;
16866;SDS011;8550;52.596;13.320;2024-02-26T03:50:22;2.20;;;1.45;;
16866;SDS011;8550;52.596;13.320;2024-02-26T03:55:25;4.97;;;1.40;;
16866;SDS011;8550;52.596;13.320;2024-02-26T04:00:27;3.08;;;1.75;;
16866;SDS011;8550;52.596;13.320;2024-02-26T04:05:30;3.03;;;1.40;;
16866;SDS011;8550;52.596;13.320;2024-02-26T04:10:33;4.20;;;1.63;;
16866;SDS011;8550;52.596;13.320;2024-02-26T04:15:38;6.85;;;1.58;;
16866;SDS011;8550;52.596;13.320;2024-02-26T04:20:40;4.82;;;2.63;;
16866;SDS011;8550;52.596;13.320;2024-02-26T04:25:43;3.90;;;1.73;;
16866;SDS011;8550;52.596;13.320;2024-02-26T04:30:45;4.90;;;2.50;;
16866;SDS011;8550;52.596;13.320;2024-02-26T04:35:48;3.33;;;1.70;;
16866;SDS011;8550;52.596;13.320;2024-02-26T04:40:51;2.43;;;1.20;;
16866;SDS011;8550;52.596;13.320;2024-02-26T04:45:54;5.07;;;1.88;;
16866;SDS011;8550;52.596;13.320;2024-02-26T04:50:57;4.00;;;1.17;;
16866;SDS011;8550;52.596;13.320;2024-02-26T04:56:00;2.90;;;1.23;;
16866;SDS011;8550;52.596;13.320;2024-02-26T05:01:02;4.95;;;2.65;;
16866;SDS011;8550;52.596;13.320;2024-02-26T05:06:05;2.20;;;1.10;;
16866;SDS011;8550;52.596;13.320;2024-02-26T05:11:08;3.87;;;1.93;;
16866;SDS011;8550;52.596;13.320;2024-02-26T05:16:10;10.00;;;2.63;;
16866;SDS011;8550;52.596;13.320;2024-02-26T05:21:12;3.88;;;1.90;;
16866;SDS011;8550;52.596;13.320;2024-02-26T05:26:20;3.00;;;1.60;;
16866;SDS011;8550;52.596;13.320;2024-02-26T05:31:22;3.27;;;1.43;;
16866;SDS011;8550;52.596;13.320;2024-02-26T05:36:24;10.98;;;1.77;;
16866;SDS011;8550;52.596;13.320;2024-02-26T05:41:30;2.35;;;1.08;;
16866;SDS011;8550;52.596;13.320;2024-02-26T05:46:32;4.43;;;1.77;;
16866;SDS011;8550;52.596;13.320;2024-02-26T05:51:33;3.67;;;1.92;;
16866;SDS011;8550;52.596;13.320;2024-02-26T05:56:37;2.65;;;1.20;;
16866;SDS011;8550;52.596;13.320;2024-02-26T06:01:39;4.40;;;1.80;;
16866;SDS011;8550;52.596;13.320;2024-02-26T06:06:41;2.72;;;1.17;;
16866;SDS011;8550;52.596;13.320;2024-02-26T06:11:44;1.92;;;0.93;;
16866;SDS011;8550;52.596;13.320;2024-02-26T06:16:46;3.57;;;1.20;;
16866;SDS011;8550;52.596;13.320;2024-02-26T06:21:48;3.13;;;1.33;;
16866;SDS011;8550;52.596;13.320;2024-02-26T06:26:52;5.55;;;1.70;;
16866;SDS011;8550;52.596;13.320;2024-02-26T06:31:54;4.17;;;2.30;;
16866;SDS011;8550;52.596;13.320;2024-02-26T06:36:56;4.13;;;1.60;;
16866;SDS011;8550;52.596;13.320;2024-02-26T06:41:59;4.22;;;2.05;;
16866;SDS011;8550;52.596;13.320;2024-02-26T06:47:01;4.33;;;2.00;;
16866;SDS011;8550;52.596;13.320;2024-02-26T06:52:04;3.03;;;1.98;;
16866;SDS011;8550;52.596;13.320;2024-02-26T06:57:07;4.15;;;1.60;;
16866;SDS011;8550;52.596;13.320;2024-02-26T07:02:09;3.67;;;1.73;;
16866;SDS011;8550;52.596;13.320;2024-02-26T07:07:11;3.47;;;1.90;;
16866;SDS011;8550;52.596;13.320;2024-02-26T07:12:14;3.95;;;2.10;;
16866;SDS011;8550;52.596;13.320;2024-02-26T07:17:17;4.28;;;2.05;;
16866;SDS011;8550;52.596;13.320;2024-02-26T07:22:19;3.73;;;1.83;;
16866;SDS011;8550;52.596;13.320;2024-02-26T07:27:22;4.60;;;2.42;;
16866;SDS011;8550;52.596;13.320;2024-02-26T07:32:24;5.95;;;2.72;;
16866;SDS011;8550;52.596;13.320;2024-02-26T07:37:26;10.03;;;3.23;;
16866;SDS011;8550;52.596;13.320;2024-02-26T07:42:29;5.30;;;3.45;;
16866;SDS011;8550;52.596;13.320;2024-02-26T07:47:31;8.32;;;2.90;;
16866;SDS011;8550;52.596;13.320;2024-02-26T07:52:34;7.93;;;3.70;;
16866;SDS011;8550;52.596;13.320;2024-02-26T07:57:40;5.68;;;2.88;;
16866;SDS011;8550;52.596;13.320;2024-02-26T08:02:43;6.35;;;3.15;;
16866;SDS011;8550;52.596;13.320;2024-02-26T08:07:45;9.20;;;4.50;;
16866;SDS011;8550;52.596;13.320;2024-02-26T08:12:49;5.80;;;2.92;;
16866;SDS011;8550;52.596;13.320;2024-02-26T08:17:50;6.78;;;3.58;;
16866;SDS011;8550;52.596;13.320;2024-02-26T08:22:52;7.77;;;4.10;;
16866;SDS011;8550;52.596;13.320;2024-02-26T08:27:55;7.13;;;3.47;;
16866;SDS011;8550;52.596;13.320;2024-02-26T08:32:57;8.45;;;4.85;;
16866;SDS011;8550;52.596;13.320;2024-02-26T08:37:59;7.28;;;4.13;;
16866;SDS011;8550;52.596;13.320;2024-02-26T08:43:03;7.47;;;3.50;;
16866;SDS011;8550;52.596;13.320;2024-02-26T08:48:05;17.55;;;9.27;;
16866;SDS011;8550;52.596;13.320;2024-02-26T08:53:08;9.60;;;4.55;;
16866;SDS011;8550;52.596;13.320;2024-02-26T08:58:11;9.07;;;4.33;;
16866;SDS011;8550;52.596;13.320;2024-02-26T09:03:13;11.70;;;4.95;;
16866;SDS011;8550;52.596;13.320;2024-02-26T09:08:15;9.38;;;4.68;;
16866;SDS011;8550;52.596;13.320;2024-02-26T09:13:18;12.70;;;4.83;;
16866;SDS011;8550;52.596;13.320;2024-02-26T09:18:20;10.33;;;5.40;;
16866;SDS011;8550;52.596;13.320;2024-02-26T09:23:22;9.45;;;5.22;;
16866;SDS011;8550;52.596;13.320;2024-02-26T09:28:25;11.90;;;5.45;;
16866;SDS011;8550;52.596;13.320;2024-02-26T09:33:27;10.00;;;4.70;;
16866;SDS011;8550;52.596;13.320;2024-02-26T09:38:29;11.90;;;5.63;;
16866;SDS011;8550;52.596;13.320;2024-02-26T09:43:38;11.23;;;5.03;;
16866;SDS011;8550;52.596;13.320;2024-02-26T09:48:43;11.20;;;4.90;;
16866;SDS011;8550;52.596;13.320;2024-02-26T10:07:09;11.00;;;4.63;;
16866;SDS011;8550;52.596;13.320;2024-02-26T10:12:12;8.80;;;5.28;;
16866;SDS011;8550;52.596;13.320;2024-02-26T10:21:07;12.63;;;5.63;;
16866;SDS011;8550;52.596;13.320;2024-02-26T10:26:09;11.15;;;5.43;;
16866;SDS011;8550;52.596;13.320;2024-02-26T10:31:13;12.00;;;5.65;;
16866;SDS011;8550;52.596;13.320;2024-02-26T10:36:17;10.27;;;4.23;;
16866;SDS011;8550;52.596;13.320;2024-02-26T10:41:19;8.10;;;4.43;;
16866;SDS011;8550;52.596;13.320;2024-02-26T10:46:21;9.75;;;5.10;;
16866;SDS011;8550;52.596;13.320;2024-02-26T10:51:26;8.37;;;4.23;;
16866;SDS011;8550;52.596;13.320;2024-02-26T10:56:29;8.30;;;3.85;;
16866;SDS011;8550;52.596;13.320;2024-02-26T11:01:34;9.38;;;4.18;;
16866;SDS011;8550;52.596;13.320;2024-02-26T11:06:40;9.73;;;4.43;;
16866;SDS011;8550;52.596;13.320;2024-02-26T11:11:42;9.73;;;4.17;;
16866;SDS011;8550;52.596;13.320;2024-02-26T11:16:45;6.22;;;3.33;;
16866;SDS011;8550;52.596;13.320;2024-02-26T11:21:49;8.15;;;3.70;;
16866;SDS011;8550;52.596;13.320;2024-02-26T11:26:51;13.20;;;4.50;;
16866;SDS011;8550;52.596;13.320;2024-02-26T11:31:59;8.02;;;3.75;;
16866;SDS011;8550;52.596;13.320;2024-02-26T11:37:10;9.15;;;3.65;;
16866;SDS011;8550;52.596;13.320;2024-02-26T11:42:13;7.87;;;3.93;;
16866;SDS011;8550;52.596;13.320;2024-02-26T11:47:18;7.28;;;3.65;;
16866;SDS011;8550;52.596;13.320;2024-02-26T11:52:22;7.85;;;4.30;;
16866;SDS011;8550;52.596;13.320;2024-02-26T11:57:25;8.73;;;4.30;;
16866;SDS011;8550;52.596;13.320;2024-02-26T12:02:38;6.90;;;3.40;;
16866;SDS011;8550;52.596;13.320;2024-02-26T12:07:52;7.95;;;3.72;;
16866;SDS011;8550;52.596;13.320;2024-02-26T12:12:58;8.23;;;4.10;;
16866;SDS011;8550;52.596;13.320;2024-02-26T12:18:02;9.13;;;3.47;;
16866;SDS011;8550;52.596;13.320;2024-02-26T12:23:06;7.53;;;3.30;;
16866;SDS011;8550;52.596;13.320;2024-02-26T12:28:08;7.88;;;3.22;;
16866;SDS011;8550;52.596;13.320;2024-02-26T12:33:10;7.27;;;3.60;;
16866;SDS011;8550;52.596;13.320;2024-02-26T12:38:14;6.97;;;2.95;;
16866;SDS011;8550;52.596;13.320;2024-02-26T12:43:16;6.53;;;3.10;;
16866;SDS011;8550;52.596;13.320;2024-02-26T12:48:18;6.03;;;2.43;;
16866;SDS011;8550;52.596;13.320;2024-02-26T12:53:22;5.83;;;2.20;;
16866;SDS011;8550;52.596;13.320;2024-02-26T12:58:23;5.18;;;1.98;;
16866;SDS011;8550;52.596;13.320;2024-02-26T13:03:29;5.80;;;1.92;;
16866;SDS011;8550;52.596;13.320;2024-02-26T13:08:32;3.47;;;1.53;;
16866;SDS011;8550;52.596;13.320;2024-02-26T13:13:34;4.25;;;1.30;;
16866;SDS011;8550;52.596;13.320;2024-02-26T13:18:37;3.50;;;1.30;;
16866;SDS011;8550;52.596;13.320;2024-02-26T13:23:40;2.43;;;0.83;;
16866;SDS011;8550;52.596;13.320;2024-02-26T13:28:43;7.55;;;1.17;;
16866;SDS011;8550;52.596;13.320;2024-02-26T13:33:46;2.58;;;1.02;;
16866;SDS011;8550;52.596;13.320;2024-02-26T13:38:53;3.13;;;1.30;;
16866;SDS011;8550;52.596;13.320;2024-02-26T13:43:56;2.90;;;0.90;;
16866;SDS011;8550;52.596;13.320;2024-02-26T13:48:58;6.15;;;1.30;;
16866;SDS011;8550;52.596;13.320;2024-02-26T13:54:02;3.80;;;1.50;;
16866;SDS011;8550;52.596;13.320;2024-02-26T13:59:05;4.70;;;1.20;;
16866;SDS011;8550;52.596;13.320;2024-02-26T14:04:07;5.35;;;1.40;;
16866;SDS011;8550;52.596;13.320;2024-02-26T14:09:10;5.22;;;1.50;;
16866;SDS011;8550;52.596;13.320;2024-02-26T14:14:18;5.63;;;1.83;;
16866;SDS011;8550;52.596;13.320;2024-02-26T14:19:20;7.40;;;2.42;;
16866;SDS011;8550;52.596;13.320;2024-02-26T14:24:24;5.38;;;2.00;;
16866;SDS011;8550;52.596;13.320;2024-02-26T14:29:26;4.97;;;2.07;;
16866;SDS011;8550;52.596;13.320;2024-02-26T14:34:28;4.47;;;2.23;;
16866;SDS011;8550;52.596;13.320;2024-02-26T14:39:31;8.43;;;2.30;;
16866;SDS011;8550;52.596;13.320;2024-02-26T14:44:33;5.35;;;1.80;;
16866;SDS011;8550;52.596;13.320;2024-02-26T14:49:35;4.00;;;1.67;;
16866;SDS011;8550;52.596;13.320;2024-02-26T14:54:38;7.20;;;2.08;;
16866;SDS011;8550;52.596;13.320;2024-02-26T14:59:41;4.75;;;1.98;;
16866;SDS011;8550;52.596;13.320;2024-02-26T15:04:45;4.90;;;1.80;;
16866;SDS011;8550;52.596;13.320;2024-02-26T15:09:48;5.72;;;2.05;;
16866;SDS011;8550;52.596;13.320;2024-02-26T15:14:50;6.13;;;1.80;;
16866;SDS011;8550;52.596;13.320;2024-02-26T15:19:52;6.20;;;2.63;;
16866;SDS011;8550;52.596;13.320;2024-02-26T15:24:58;4.70;;;2.13;;
16866;SDS011;8550;52.596;13.320;2024-02-26T15:30:00;7.00;;;2.35;;
16866;SDS011;8550;52.596;13.320;2024-02-26T15:35:02;7.30;;;2.58;;
16866;SDS011;8550;52.596;13.320;2024-02-26T15:40:06;7.23;;;3.13;;
16866;SDS011;8550;52.596;13.320;2024-02-26T15:45:09;5.70;;;2.58;;
16866;SDS011;8550;52.596;13.320;2024-02-26T15:50:11;7.43;;;3.00;;
16866;SDS011;8550;52.596;13.320;2024-02-26T15:55:15;7.80;;;3.10;;
16866;SDS011;8550;52.596;13.320;2024-02-26T16:00:17;10.63;;;3.00;;
16866;SDS011;8550;52.596;13.320;2024-02-26T16:05:19;11.05;;;3.45;;
16866;SDS011;8550;52.596;13.320;2024-02-26T16:10:22;9.00;;;4.13;;
16866;SDS011;8550;52.596;13.320;2024-02-26T16:15:27;12.23;;;6.03;;
16866;SDS011;8550;52.596;13.320;2024-02-26T16:20:30;6.45;;;3.33;;
16866;SDS011;8550;52.596;13.320;2024-02-26T16:25:34;10.50;;;4.22;;
16866;SDS011;8550;52.596;13.320;2024-02-26T16:30:37;10.43;;;3.93;;
16866;SDS011;8550;52.596;13.320;2024-02-26T16:35:39;11.73;;;3.75;;
16866;SDS011;8550;52.596;13.320;2024-02-26T16:40:42;7.38;;;3.33;;
16866;SDS011;8550;52.596;13.320;2024-02-26T16:45:44;8.73;;;4.00;;
16866;SDS011;8550;52.596;13.320;2024-02-26T16:50:48;10.55;;;3.83;;
16866;SDS011;8550;52.596;13.320;2024-02-26T16:55:51;13.60;;;4.78;;
16866;SDS011;8550;52.596;13.320;2024-02-26T17:00:53;18.43;;;6.57;;
16866;SDS011;8550;52.596;13.320;2024-02-26T17:05:55;13.13;;;5.53;;
16866;SDS011;8550;52.596;13.320;2024-02-26T17:11:00;12.32;;;6.25;;
16866;SDS011;8550;52.596;13.320;2024-02-26T17:16:04;13.32;;;5.38;;
16866;SDS011;8550;52.596;13.320;2024-02-26T17:21:06;8.77;;;3.47;;
16866;SDS011;8550;52.596;13.320;2024-02-26T17:26:10;10.75;;;4.32;;
16866;SDS011;8550;52.596;13.320;2024-02-26T17:31:18;12.48;;;4.88;;
16866;SDS011;8550;52.596;13.320;2024-02-26T17:36:20;10.90;;;3.87;;
16866;SDS011;8550;52.596;13.320;2024-02-26T17:41:24;9.15;;;4.10;;
16866;SDS011;8550;52.596;13.320;2024-02-26T17:46:27;8.93;;;4.35;;
16866;SDS011;8550;52.596;13.320;2024-02-26T17:51:29;9.77;;;3.73;;
16866;SDS011;8550;52.596;13.320;2024-02-26T17:56:32;18.70;;;4.33;;
16866;SDS011;8550;52.596;13.320;2024-02-26T18:01:34;8.80;;;4.05;;
16866;SDS011;8550;52.596;13.320;2024-02-26T18:06:37;6.63;;;3.78;;
16866;SDS011;8550;52.596;13.320;2024-02-26T18:11:40;7.53;;;3.60;;
16866;SDS011;8550;52.596;13.320;2024-02-26T18:16:44;7.20;;;3.60;;
16866;SDS011;8550;52.596;13.320;2024-02-26T18:21:46;9.27;;;3.05;;
16866;SDS011;8550;52.596;13.320;2024-02-26T18:26:49;6.97;;;3.10;;
16866;SDS011;8550;52.596;13.320;2024-02-26T18:31:52;7.85;;;2.78;;
16866;SDS011;8550;52.596;13.320;2024-02-26T18:36:54;7.55;;;3.22;;
16866;SDS011;8550;52.596;13.320;2024-02-26T18:41:58;7.33;;;3.17;;
16866;SDS011;8550;52.596;13.320;2024-02-26T18:47:00;6.73;;;2.73;;
16866;SDS011;8550;52.596;13.320;2024-02-26T18:52:02;5.78;;;2.10;;
16866;SDS011;8550;52.596;13.320;2024-02-26T18:57:05;7.20;;;3.60;;
16866;SDS011;8550;52.596;13.320;2024-02-26T19:02:07;6.47;;;2.97;;
16866;SDS011;8550;52.596;13.320;2024-02-26T19:07:10;5.47;;;2.65;;
16866;SDS011;8550;52.596;13.320;2024-02-26T19:12:14;5.13;;;2.65;;
16866;SDS011;8550;52.596;13.320;2024-02-26T19:17:16;6.47;;;1.73;;
16866;SDS011;8550;52.596;13.320;2024-02-26T19:22:18;7.65;;;2.70;;
16866;SDS011;8550;52.596;13.320;2024-02-26T19:27:21;5.53;;;2.15;;
16866;SDS011;8550;52.596;13.320;2024-02-26T19:32:23;5.73;;;2.30;;
16866;SDS011;8550;52.596;13.320;2024-02-26T19:37:25;4.57;;;2.03;;
16866;SDS011;8550;52.596;13.320;2024-02-26T19:42:28;5.95;;;1.92;;
16866;SDS011;8550;52.596;13.320;2024-02-26T19:47:30;5.55;;;2.22;;
16866;SDS011;8550;52.596;13.320;2024-02-26T19:52:32;5.03;;;1.80;;
16866;SDS011;8550;52.596;13.320;2024-02-26T19:57:36;4.47;;;2.38;;
16866;SDS011;8550;52.596;13.320;2024-02-26T20:02:38;5.75;;;2.00;;
16866;SDS011;8550;52.596;13.320;2024-02-26T20:07:40;4.43;;;1.70;;
16866;SDS011;8550;52.596;13.320;2024-02-26T20:12:44;4.88;;;1.75;;
16866;SDS011;8550;52.596;13.320;2024-02-26T20:17:46;5.75;;;1.90;;
16866;SDS011;8550;52.596;13.320;2024-02-26T20:22:48;3.77;;;1.97;;
16866;SDS011;8550;52.596;13.320;2024-02-26T20:27:53;5.27;;;1.87;;
16866;SDS011;8550;52.596;13.320;2024-02-26T20:32:55;7.57;;;1.85;;
16866;SDS011;8550;52.596;13.320;2024-02-26T20:37:57;3.88;;;1.73;;
16866;SDS011;8550;52.596;13.320;2024-02-26T20:43:00;3.67;;;1.40;;
16866;SDS011;8550;52.596;13.320;2024-02-26T20:48:03;3.10;;;1.08;;
16866;SDS011;8550;52.596;13.320;2024-02-26T20:53:05;4.32;;;1.42;;
16866;SDS011;8550;52.596;13.320;2024-02-26T20:58:09;4.30;;;1.80;;
16866;SDS011;8550;52.596;13.320;2024-02-26T21:03:11;3.30;;;1.48;;
16866;SDS011;8550;52.596;13.320;2024-02-26T21:08:13;4.53;;;1.92;;
16866;SDS011;8550;52.596;13.320;2024-02-26T21:13:16;5.03;;;1.60;;
16866;SDS011;8550;52.596;13.320;2024-02-26T21:18:19;5.80;;;1.60;;
16866;SDS011;8550;52.596;13.320;2024-02-26T21:23:21;4.70;;;1.90;;
16866;SDS011;8550;52.596;13.320;2024-02-26T21:28:26;3.90;;;1.33;;
16866;SDS011;8550;52.596;13.320;2024-02-26T21:33:28;4.40;;;1.77;;
16866;SDS011;8550;52.596;13.320;2024-02-26T21:38:31;3.78;;;1.38;;
16866;SDS011;8550;52.596;13.320;2024-02-26T21:43:35;3.95;;;1.20;;
16866;SDS011;8550;52.596;13.320;2024-02-26T21:48:37;3.20;;;1.20;;
16866;SDS011;8550;52.596;13.320;2024-02-26T21:53:39;3.80;;;1.30;;
16866;SDS011;8550;52.596;13.320;2024-02-26T21:58:43;4.13;;;1.50;;
16866;SDS011;8550;52.596;13.320;2024-02-26T22:03:45;3.00;;;1.40;;
16866;SDS011;8550;52.596;13.320;2024-02-26T22:08:47;6.40;;;1.80;;
16866;SDS011;8550;52.596;13.320;2024-02-26T22:13:50;3.65;;;1.60;;
16866;SDS011;8550;52.596;13.320;2024-02-26T22:18:52;3.70;;;1.45;;
16866;SDS011;8550;52.596;13.320;2024-02-26T22:23:54;3.87;;;1.30;;
16866;SDS011;8550;52.596;13.320;2024-02-26T22:28:57;5.07;;;1.40;;
16866;SDS011;8550;52.596;13.320;2024-02-26T22:33:59;5.40;;;1.42;;
16866;SDS011;8550;52.596;13.320;2024-02-26T22:39:01;3.07;;;1.10;;
16866;SDS011;8550;52.596;13.320;2024-02-26T22:44:06;2.70;;;0.68;;
16866;SDS011;8550;52.596;13.320;2024-02-26T22:49:07;3.10;;;1.45;;
16866;SDS011;8550;52.596;13.320;2024-02-26T22:54:10;2.37;;;0.87;;
16866;SDS011;8550;52.596;13.320;2024-02-26T22:59:13;5.78;;;1.30;;
16866;SDS011;8550;52.596;13.320;2024-02-26T23:04:15;4.65;;;1.90;;
16866;SDS011;8550;52.596;13.320;2024-02-26T23:09:17;4.47;;;1.47;;
16866;SDS011;8550;52.596;13.320;2024-02-26T23:14:21;9.43;;;1.53;;
16866;SDS011;8550;52.596;13.320;2024-02-26T23:19:23;3.10;;;1.38;;
16866;SDS011;8550;52.596;13.320;2024-02-26T23:24:25;3.67;;;1.35;;
16866;SDS011;8550;52.596;13.320;2024-02-26T23:29:29;3.50;;;1.13;;
16866;SDS011;8550;52.596;13.320;2024-02-26T23:34:30;4.00;;;1.65;;
16866;SDS011;8550;52.596;13.320;2024-02-26T23:39:32;3.47;;;1.30;;
16866;SDS011;8550;52.596;13.320;2024-02-26T23:44:36;2.93;;;0.97;;
16866;SDS011;8550;52.596;13.320;2024-02-26T23:49:38;2.15;;;0.85;;
16866;SDS011;8550;52.596;13.320;2024-02-26T23:54:40;3.30;;;1.17;;
16866;SDS011;8550;52.596;13.320;2024-02-26T23:59:43;3.63;;;1.10;;
